Harborside, Maine
Current Conditions -  °F | °C
As of 9:15 PM on Friday 19 Dec 2014 (Local Time) from KBHB Reporting Station
Clear Clear  
Wind Chill: 18°   Ceiling: Unl
Heat Index: 27°   Visibility: 10mi
Dew Point: 25°   Wind: 8mph
Humidity: 93%   Direction: 360°N
Pressure: 30.07"   Gusts: NA
Location:  44.35°N, 68.82°W
Report Text: KBHB 200215Z AUTO 36007KT 10SM CLR M03/M04 A3007 RMK AO1
Loading
Personal Weather Stations






























Interactive Weather Map New forecast layout! Learn more

10-Day Weather Forecast

Advertisements
Track Severe Weather on mobile